Погода Даунина неделю

Калифорния, США

01 - 07 сентября
  • 01сентября
    Сегодня
    +18°
    +27°
    Ясно и безоблачно
    ВремяПогодаТемператураВлажностьДавлениеВетер, м/сВероятность осадков
    02:00Ясно и безоблачно+20°C80 %758 мм1.2 м/с2 %
    05:00Ясно и безоблачно+18°C83 %757 мм1.4 м/с2 %
    08:00Ясно и безоблачно+20°C75 %758 мм0.5 м/с2 %
    11:00Ясно и безоблачно+24°C57 %758 мм3.2 м/с2 %
    14:00Ясно и безоблачно+26°C47 %758 мм4.3 м/с2 %
    17:00Ясно и безоблачно+25°C47 %757 мм5.2 м/с2 %
    20:00Ясно и безоблачно+22°C57 %757 мм4.1 м/с2 %
    23:00Ясно и безоблачно+21°C69 %758 мм2.4 м/с2 %
  • 02сентября
    Среда
    +19°
    +27°
    Ясно и безоблачно
    ВремяПогодаТемператураВлажностьДавлениеВетер, м/сВероятность осадков
    02:00Ясно и безоблачно+20°C76 %759 мм0.6 м/с2 %
    05:00Ясно и безоблачно+19°C78 %758 мм1.0 м/с2 %
    08:00Ясно и безоблачно+21°C73 %759 мм0.5 м/с2 %
    11:00Ясно и безоблачно+24°C55 %759 мм3.2 м/с2 %
    14:00Ясно и безоблачно+26°C44 %758 мм3.8 м/с2 %
    17:00Ясно и безоблачно+26°C46 %756 мм5.0 м/с2 %
    20:00Ясно и безоблачно+24°C50 %757 мм4.1 м/с2 %
    23:00Ясно и безоблачно+22°C68 %758 мм2.0 м/с2 %
  • 03сентября
    Четверг
    +19°
    +26°
    Ясно и безоблачно
    ВремяПогодаТемператураВлажностьДавлениеВетер, м/сВероятность осадков
    02:00Ясно и безоблачно+21°C78 %757 мм1.0 м/с2 %
    05:00Ясно и безоблачно+20°C80 %757 мм1.4 м/с2 %
    08:00Практически безоблачно+22°C73 %757 мм1.3 м/с2 %
    11:00Ясно и безоблачно+25°C58 %757 мм3.5 м/с2 %
    14:00Ясно и безоблачно+25°C54 %756 мм4.0 м/с2 %
    17:00Ясно и безоблачно+25°C57 %755 мм4.8 м/с2 %
    20:00Ясно и безоблачно+23°C60 %755 мм4.1 м/с2 %
    23:00Ясно и безоблачно+22°C72 %756 мм2.1 м/с2 %
  • 04сентября
    Пятница
    +19°
    +27°
    Ясно и безоблачно
    ВремяПогодаТемператураВлажностьДавлениеВетер, м/сВероятность осадков
    02:00Ясно и безоблачно+21°C77 %756 мм1.3 м/с2 %
    05:00Ясно и безоблачно+20°C78 %756 мм1.5 м/с2 %
    08:00Ясно и безоблачно+22°C72 %757 мм0.7 м/с2 %
    11:00Ясно и безоблачно+25°C52 %757 мм3.3 м/с2 %
    14:00Ясно и безоблачно+26°C46 %756 мм3.8 м/с2 %
    17:00Ясно и безоблачно+27°C51 %755 мм4.3 м/с2 %
    20:00Ясно и безоблачно+23°C65 %756 мм3.4 м/с2 %
    23:00Ясно и безоблачно+22°C75 %756 мм1.7 м/с2 %
  • 05сентября
    Суббота
    +22°
    +30°
    Ясно и безоблачно
    ВремяПогодаТемператураВлажностьДавлениеВетер, м/сВероятность осадков
    02:00Ясно и безоблачно+21°C79 %756 мм0.6 м/с2 %
    05:00Ясно и безоблачно+20°C81 %756 мм1.0 м/с6 %
    08:00Ясно и безоблачно+22°C74 %757 мм0.1 м/с13 %
    11:00Ясно и безоблачно+27°C53 %757 мм3.0 м/с14 %
    14:00Ясно и безоблачно+29°C36 %756 мм4.1 м/с19 %
    17:00Ясно и безоблачно+29°C40 %755 мм4.6 м/с18 %
    20:00Ясно и безоблачно+25°C55 %756 мм3.2 м/с18 %
    23:00Ясно и безоблачно+24°C65 %757 мм1.5 м/с20 %
  • 06сентября
    Воскресенье
    +19°
    +31°
    Ясно и безоблачно
    ВремяПогодаТемператураВлажностьДавлениеВетер, м/сВероятность осадков
    05:00Ясно и безоблачно+23°C72 %756 мм1.4 м/с30 %
    11:00Ясно и безоблачно+26°C91 %757 мм2.4 м/с35 %
    17:00Ясно и безоблачно+30°C43 %755 мм3.3 м/с31 %
    23:00Ясно и безоблачно+22°C65 %756 мм1.7 м/с24 %
  • 07сентября
    Понедельник
    +18°
    +31°
    Ясно и безоблачно
    ВремяПогодаТемператураВлажностьДавлениеВетер, м/сВероятность осадков
    05:00Ясно и безоблачно+20°C81 %756 мм1.4 м/с18 %
    11:00Ясно и безоблачно+28°C46 %757 мм2.3 м/с26 %
    17:00Ясно и безоблачно+28°C38 %755 мм4.0 м/с20 %
    23:00Ясно и безоблачно+21°C74 %756 мм1.8 м/с15 %
Мы используем cookies
Соглашаюсь